Time;durP1;ratioP1;P1;durP2;ratioP2;P2;SDS_P1;SDS_P2;PMS_P1;PMS_P2;Temp;Humidity;BMP_temperature;BMP_pressure;BME280_temperature;BME280_humidity;BME280_pressure;Samples;Min_cycle;Max_cycle;Signal;HPM_P1;HPM_P2
2023/01/01 00:00:33;;;;;;;10.53;5.20;;;;;;;;;;5030400;28;20017;-64
2023/01/01 00:02:58;;;;;;;9.52;5.18;;;;;;;;;;5030849;28;20101;-64
2023/01/01 00:05:23;;;;;;;9.05;4.15;;;;;;;;;;5030886;28;20018;-64
2023/01/01 00:07:48;;;;;;;14.63;7.22;;;;;;;;;;5030873;28;20027;-63
2023/01/01 00:10:29;;;;;;;12.00;6.27;;;;;;;;;;5030739;28;20022;-65
2023/01/01 00:12:57;;;;;;;9.05;5.47;;;;;;;;;;5028590;28;20048;-65
2023/01/01 00:15:23;;;;;;;9.85;5.10;;;;;;;;;;5030390;28;20473;-65
2023/01/01 00:17:48;;;;;;;7.60;4.10;;;;;;;;;;5030616;28;20057;-65
2023/01/01 00:20:13;;;;;;;7.93;4.20;;;;;;;;;;5030537;28;20376;-64
2023/01/01 00:22:39;;;;;;;9.80;4.57;;;;;;;;;;5030809;28;20100;-65
2023/01/01 00:25:04;;;;;;;9.52;3.70;;;;;;;;;;5030809;28;20385;-65
2023/01/01 00:27:30;;;;;;;10.70;4.53;;;;;;;;;;5030081;28;20096;-64
2023/01/01 00:29:55;;;;;;;7.68;3.47;;;;;;;;;;5030473;28;20022;-65
2023/01/01 00:32:20;;;;;;;7.20;3.30;;;;;;;;;;5029801;28;20033;-64
2023/01/01 00:34:45;;;;;;;7.73;3.33;;;;;;;;;;5030573;28;20032;-65
2023/01/01 00:37:10;;;;;;;7.20;3.70;;;;;;;;;;5031133;28;20030;-64
2023/01/01 00:39:35;;;;;;;8.73;3.10;;;;;;;;;;5034383;28;20021;-65
2023/01/01 00:42:01;;;;;;;6.70;3.13;;;;;;;;;;5034451;28;20091;-65
2023/01/01 00:44:26;;;;;;;8.30;3.67;;;;;;;;;;5033909;28;21032;-65
2023/01/01 00:46:51;;;;;;;7.53;3.67;;;;;;;;;;5034261;28;20412;-64
2023/01/01 00:49:16;;;;;;;6.20;2.57;;;;;;;;;;5034172;28;20025;-67
2023/01/01 00:51:41;;;;;;;5.20;2.50;;;;;;;;;;5033565;28;20104;-66
2023/01/01 00:54:06;;;;;;;5.57;2.42;;;;;;;;;;5034025;28;20022;-65
2023/01/01 00:56:32;;;;;;;7.20;2.60;;;;;;;;;;5033576;28;20026;-66
2023/01/01 00:58:57;;;;;;;8.88;2.72;;;;;;;;;;5033968;28;20025;-65
2023/01/01 01:01:22;;;;;;;6.10;2.70;;;;;;;;;;5033662;28;20025;-64
2023/01/01 01:03:47;;;;;;;5.70;2.30;;;;;;;;;;5034014;28;20022;-65
2023/01/01 01:06:14;;;;;;;6.10;2.50;;;;;;;;;;5033898;28;20031;-64
2023/01/01 01:08:41;;;;;;;8.40;2.75;;;;;;;;;;5033552;28;20049;-64
2023/01/01 01:11:08;;;;;;;5.68;2.53;;;;;;;;;;5033613;28;20075;-64
2023/01/01 01:13:33;;;;;;;6.07;2.40;;;;;;;;;;5032820;28;20129;-65
2023/01/01 01:15:58;;;;;;;6.03;2.80;;;;;;;;;;5033832;28;20105;-65
2023/01/01 01:18:23;;;;;;;6.20;3.10;;;;;;;;;;5033777;28;20079;-64
2023/01/01 01:20:52;;;;;;;6.60;3.00;;;;;;;;;;5033420;28;20480;-65
2023/01/01 01:23:18;;;;;;;5.72;2.50;;;;;;;;;;5033304;28;20025;-63
2023/01/01 01:25:43;;;;;;;6.38;2.90;;;;;;;;;;5033407;28;20426;-64
2023/01/01 01:28:08;;;;;;;7.57;2.67;;;;;;;;;;5033113;28;20645;-65
2023/01/01 01:30:33;;;;;;;6.00;2.50;;;;;;;;;;5033267;28;20586;-64
2023/01/01 01:32:58;;;;;;;5.50;2.60;;;;;;;;;;5033072;28;20330;-64
2023/01/01 01:35:23;;;;;;;5.88;2.58;;;;;;;;;;5033240;28;20070;-66
2023/01/01 01:37:49;;;;;;;6.07;2.90;;;;;;;;;;5033376;28;20062;-65
2023/01/01 01:40:16;;;;;;;6.23;2.60;;;;;;;;;;5033041;28;20017;-65
2023/01/01 01:42:44;;;;;;;5.93;2.42;;;;;;;;;;5032883;28;20040;-65
2023/01/01 01:45:09;;;;;;;5.20;2.25;;;;;;;;;;5032889;28;20022;-65
2023/01/01 01:47:54;;;;;;;5.72;2.40;;;;;;;;;;5032596;28;20029;-65
2023/01/01 01:50:35;;;;;;;7.88;2.30;;;;;;;;;;5031926;28;20087;-65
2023/01/01 01:53:00;;;;;;;15.20;4.05;;;;;;;;;;5032698;28;20040;-65
2023/01/01 01:55:27;;;;;;;27.25;6.93;;;;;;;;;;5032894;28;20017;-64
2023/01/01 01:57:52;;;;;;;47.95;18.70;;;;;;;;;;5031240;28;20022;-65
2023/01/01 02:00:18;;;;;;;7.27;2.90;;;;;;;;;;5032853;28;20018;-63
2023/01/01 02:02:52;;;;;;;4.80;1.90;;;;;;;;;;5032374;28;20395;-63
2023/01/01 02:05:18;;;;;;;6.20;1.88;;;;;;;;;;5032953;28;20021;-64
2023/01/01 02:07:43;;;;;;;5.90;1.92;;;;;;;;;;5032190;28;20043;-64
2023/01/01 02:10:08;;;;;;;4.50;1.80;;;;;;;;;;5032442;28;20048;-63
2023/01/01 02:12:34;;;;;;;5.40;1.70;;;;;;;;;;5032365;28;20041;-64
2023/01/01 02:14:59;;;;;;;5.90;1.60;;;;;;;;;;5032496;28;20492;-65
2023/01/01 02:17:32;;;;;;;4.00;1.50;;;;;;;;;;5032493;28;20033;-67
2023/01/01 02:20:00;;;;;;;6.82;1.55;;;;;;;;;;5032412;28;20024;-64
2023/01/01 02:22:31;;;;;;;5.00;1.75;;;;;;;;;;5032312;28;20384;-65
2023/01/01 02:25:12;;;;;;;6.32;1.70;;;;;;;;;;5032561;28;20045;-64
2023/01/01 02:27:56;;;;;;;5.15;1.50;;;;;;;;;;5032236;28;20025;-63
2023/01/01 02:30:21;;;;;;;4.25;1.42;;;;;;;;;;5032118;28;20017;-63
2023/01/01 02:32:49;;;;;;;6.17;1.70;;;;;;;;;;5031775;28;20033;-63
2023/01/01 02:35:33;;;;;;;5.53;1.50;;;;;;;;;;5032310;28;20428;-64
2023/01/01 02:38:01;;;;;;;5.22;1.50;;;;;;;;;;5031969;28;20045;-64
2023/01/01 02:40:27;;;;;;;5.20;1.50;;;;;;;;;;5031960;28;20104;-64
2023/01/01 02:42:52;;;;;;;5.95;1.75;;;;;;;;;;5031675;28;20068;-64
2023/01/01 02:45:18;;;;;;;6.50;1.67;;;;;;;;;;5031595;28;20018;-64
2023/01/01 02:47:43;;;;;;;5.00;1.70;;;;;;;;;;5031907;28;20025;-64
2023/01/01 02:50:13;;;;;;;7.28;1.58;;;;;;;;;;5031847;28;20025;-65
2023/01/01 02:52:43;;;;;;;4.18;1.60;;;;;;;;;;5031156;28;20203;-64
2023/01/01 02:55:14;;;;;;;6.57;1.63;;;;;;;;;;5031416;28;20025;-65
2023/01/01 02:57:47;;;;;;;3.95;1.40;;;;;;;;;;5031246;28;20021;-65
2023/01/01 03:00:27;;;;;;;5.43;1.40;;;;;;;;;;5031170;28;20013;-63
2023/01/01 03:02:52;;;;;;;6.93;1.63;;;;;;;;;;5031116;28;20088;-64
2023/01/01 03:05:20;;;;;;;5.23;1.53;;;;;;;;;;5031999;28;20108;-64
2023/01/01 03:07:58;;;;;;;4.18;1.40;;;;;;;;;;5031286;28;20029;-64
2023/01/01 03:10:31;;;;;;;7.10;1.90;;;;;;;;;;5031233;28;20077;-63
2023/01/01 03:13:01;;;;;;;5.43;1.33;;;;;;;;;;5031182;28;20053;-64
2023/01/01 03:15:27;;;;;;;5.78;1.40;;;;;;;;;;5031443;28;20026;-63
2023/01/01 03:18:06;;;;;;;8.80;1.35;;;;;;;;;;5031112;28;20079;-64
2023/01/01 03:20:33;;;;;;;4.03;1.10;;;;;;;;;;5031129;28;20116;-64
2023/01/01 03:23:01;;;;;;;6.30;1.27;;;;;;;;;;5031071;28;20457;-64
2023/01/01 03:25:30;;;;;;;6.03;1.50;;;;;;;;;;5031091;28;20021;-65
2023/01/01 03:27:58;;;;;;;4.13;1.27;;;;;;;;;;5031150;28;20022;-64
2023/01/01 03:30:23;;;;;;;4.95;1.30;;;;;;;;;;5031123;28;20021;-64
2023/01/01 03:33:06;;;;;;;6.35;1.30;;;;;;;;;;5030226;28;20036;-64
2023/01/01 03:35:31;;;;;;;9.55;1.70;;;;;;;;;;5030816;28;20033;-64
2023/01/01 03:37:58;;;;;;;5.45;1.45;;;;;;;;;;5031097;28;20025;-64
2023/01/01 03:40:24;;;;;;;8.68;2.03;;;;;;;;;;5029951;28;20109;-65
2023/01/01 03:42:52;;;;;;;6.25;1.70;;;;;;;;;;5030731;28;20109;-64
2023/01/01 03:45:17;;;;;;;6.47;1.35;;;;;;;;;;5030820;28;20013;-64
2023/01/01 03:47:43;;;;;;;4.72;1.40;;;;;;;;;;5030735;28;20029;-64
2023/01/01 03:50:08;;;;;;;9.30;1.65;;;;;;;;;;5031035;28;20045;-64
2023/01/01 03:52:39;;;;;;;5.43;1.40;;;;;;;;;;5030675;28;20097;-64
2023/01/01 03:55:05;;;;;;;6.55;1.40;;;;;;;;;;5030970;28;20018;-64
2023/01/01 03:57:30;;;;;;;8.83;1.70;;;;;;;;;;5030644;28;20036;-64
2023/01/01 03:59:57;;;;;;;6.72;1.30;;;;;;;;;;5030556;28;20096;-65
2023/01/01 04:02:25;;;;;;;6.50;1.45;;;;;;;;;;5030429;28;20091;-64
2023/01/01 04:04:51;;;;;;;7.95;1.33;;;;;;;;;;5030689;28;20472;-63
2023/01/01 04:07:16;;;;;;;3.47;1.10;;;;;;;;;;5030759;28;20040;-64
2023/01/01 04:09:44;;;;;;;10.23;1.33;;;;;;;;;;5030577;28;20044;-64
2023/01/01 04:12:10;;;;;;;8.13;1.35;;;;;;;;;;5030160;28;20516;-64
2023/01/01 04:14:36;;;;;;;6.55;1.50;;;;;;;;;;5034613;28;20045;-64
2023/01/01 04:17:03;;;;;;;7.32;1.42;;;;;;;;;;5034865;28;20071;-64
2023/01/01 04:19:28;;;;;;;6.70;1.50;;;;;;;;;;5034525;28;20026;-64
2023/01/01 04:21:53;;;;;;;8.63;1.40;;;;;;;;;;5034264;28;20035;-63
2023/01/01 04:24:19;;;;;;;5.60;1.30;;;;;;;;;;5034444;28;20021;-63
2023/01/01 04:26:44;;;;;;;6.53;1.43;;;;;;;;;;5034560;28;20503;-64
2023/01/01 04:29:09;;;;;;;5.80;1.50;;;;;;;;;;5034275;28;20057;-64
2023/01/01 04:31:34;;;;;;;7.03;1.30;;;;;;;;;;5034239;28;20021;-64
2023/01/01 04:34:00;;;;;;;7.07;1.40;;;;;;;;;;5034248;28;20037;-64
2023/01/01 04:36:25;;;;;;;7.47;1.50;;;;;;;;;;5032543;28;20075;-62
2023/01/01 04:38:50;;;;;;;6.30;1.60;;;;;;;;;;5032275;28;20100;-63
2023/01/01 04:41:15;;;;;;;9.50;1.50;;;;;;;;;;5034479;28;20496;-63
2023/01/01 04:43:40;;;;;;;7.10;1.50;;;;;;;;;;5033485;28;20160;-64
2023/01/01 04:46:05;;;;;;;9.90;1.60;;;;;;;;;;5034023;28;20025;-63
2023/01/01 04:48:31;;;;;;;8.25;1.50;;;;;;;;;;5033977;28;20389;-63
2023/01/01 04:51:01;;;;;;;7.90;1.73;;;;;;;;;;5034278;28;20104;-64
2023/01/01 04:53:30;;;;;;;7.15;1.70;;;;;;;;;;5033458;28;20056;-65
2023/01/01 04:56:01;;;;;;;6.93;1.60;;;;;;;;;;5033858;28;20029;-64
2023/01/01 04:58:27;;;;;;;8.57;1.58;;;;;;;;;;5033910;28;20029;-64
2023/01/01 05:00:52;;;;;;;7.20;1.75;;;;;;;;;;5034136;28;20044;-64
2023/01/01 05:03:17;;;;;;;7.43;1.50;;;;;;;;;;5033582;28;20014;-64
2023/01/01 05:05:42;;;;;;;8.10;1.70;;;;;;;;;;5033586;28;20037;-64
2023/01/01 05:08:07;;;;;;;12.15;1.90;;;;;;;;;;5033842;28;20025;-63
2023/01/01 05:10:33;;;;;;;6.77;1.50;;;;;;;;;;5033447;28;20032;-64
2023/01/01 05:12:58;;;;;;;8.70;1.77;;;;;;;;;;5032771;28;20053;-64
2023/01/01 05:15:23;;;;;;;7.40;1.42;;;;;;;;;;5033490;28;20025;-65
2023/01/01 05:17:48;;;;;;;8.38;1.52;;;;;;;;;;5033686;28;20017;-64
2023/01/01 05:20:13;;;;;;;9.00;1.60;;;;;;;;;;5033408;28;20036;-64
2023/01/01 05:22:38;;;;;;;5.90;1.80;;;;;;;;;;5032868;28;20096;-64
2023/01/01 05:25:04;;;;;;;9.73;1.50;;;;;;;;;;5033565;28;20052;-65
2023/01/01 05:27:29;;;;;;;8.23;1.33;;;;;;;;;;5033176;28;20294;-65
2023/01/01 05:29:54;;;;;;;5.30;1.60;;;;;;;;;;5033415;28;20109;-65
2023/01/01 05:32:19;;;;;;;10.40;1.80;;;;;;;;;;5033118;28;20097;-65
2023/01/01 05:34:44;;;;;;;6.03;1.35;;;;;;;;;;5033134;28;20052;-64
2023/01/01 05:37:09;;;;;;;9.35;1.67;;;;;;;;;;5033411;28;20479;-63
2023/01/01 05:39:36;;;;;;;8.82;1.52;;;;;;;;;;5033036;28;20025;-64
2023/01/01 05:42:01;;;;;;;7.47;1.60;;;;;;;;;;5033032;28;20037;-64
2023/01/01 05:44:26;;;;;;;5.95;1.55;;;;;;;;;;5032750;28;20072;-63
2023/01/01 05:46:51;;;;;;;7.63;1.50;;;;;;;;;;5033057;28;20025;-63
2023/01/01 05:49:16;;;;;;;7.47;1.90;;;;;;;;;;5033402;28;20026;-64
2023/01/01 05:51:41;;;;;;;7.97;1.40;;;;;;;;;;5032746;28;20021;-64
2023/01/01 05:54:08;;;;;;;7.10;1.85;;;;;;;;;;5030704;28;20392;-64
2023/01/01 05:56:33;;;;;;;7.57;1.60;;;;;;;;;;5032435;28;20017;-64
2023/01/01 05:58:58;;;;;;;6.83;1.77;;;;;;;;;;5032800;28;20022;-64
2023/01/01 06:01:24;;;;;;;6.70;1.63;;;;;;;;;;5032602;28;20017;-64
2023/01/01 06:03:50;;;;;;;5.38;1.55;;;;;;;;;;5032553;28;20021;-64
2023/01/01 06:06:20;;;;;;;4.95;1.60;;;;;;;;;;5031756;28;20423;-63
2023/01/01 06:08:49;;;;;;;6.47;1.42;;;;;;;;;;5032266;28;20026;-63
2023/01/01 06:11:14;;;;;;;6.30;1.60;;;;;;;;;;5032484;28;20052;-63
2023/01/01 06:13:39;;;;;;;5.38;1.40;;;;;;;;;;5031971;28;20085;-63
2023/01/01 06:16:05;;;;;;;7.30;2.00;;;;;;;;;;5032593;28;20469;-63
2023/01/01 06:18:32;;;;;;;6.47;1.52;;;;;;;;;;5032257;28;20029;-63
2023/01/01 06:21:07;;;;;;;4.50;1.58;;;;;;;;;;5032380;28;20025;-65
2023/01/01 06:23:32;;;;;;;5.80;1.40;;;;;;;;;;5032041;28;20028;-64
2023/01/01 06:26:03;;;;;;;7.10;1.80;;;;;;;;;;5032025;28;20022;-64
2023/01/01 06:28:29;;;;;;;5.70;1.60;;;;;;;;;;5032221;28;20010;-64
2023/01/01 06:30:57;;;;;;;7.80;1.70;;;;;;;;;;5032356;28;20383;-65
2023/01/01 06:33:22;;;;;;;7.40;1.80;;;;;;;;;;5032065;28;20075;-64
2023/01/01 06:35:48;;;;;;;6.82;1.70;;;;;;;;;;5031462;28;20037;-64
2023/01/01 06:38:13;;;;;;;6.45;1.65;;;;;;;;;;5032090;28;20026;-64
2023/01/01 06:40:38;;;;;;;4.55;1.63;;;;;;;;;;5031593;28;20064;-65
2023/01/01 06:43:03;;;;;;;5.75;1.80;;;;;;;;;;5031430;28;20034;-64
2023/01/01 06:45:28;;;;;;;6.25;1.98;;;;;;;;;;5032227;28;20021;-65
2023/01/01 06:47:53;;;;;;;7.80;2.20;;;;;;;;;;5032222;28;20453;-64
2023/01/01 06:50:18;;;;;;;6.57;1.80;;;;;;;;;;5031741;28;20025;-64
2023/01/01 06:52:45;;;;;;;7.53;2.17;;;;;;;;;;5031421;28;20108;-63
2023/01/01 06:55:10;;;;;;;5.55;2.00;;;;;;;;;;5031668;28;20065;-64
2023/01/01 06:57:35;;;;;;;6.78;1.98;;;;;;;;;;5031434;28;20063;-63
2023/01/01 07:00:01;;;;;;;6.53;2.17;;;;;;;;;;5031670;28;20028;-64
2023/01/01 07:02:26;;;;;;;8.20;1.90;;;;;;;;;;5031652;28;20427;-65
2023/01/01 07:04:51;;;;;;;6.20;1.90;;;;;;;;;;5031484;28;20032;-63
2023/01/01 07:07:16;;;;;;;6.30;2.45;;;;;;;;;;5031482;28;20040;-63
2023/01/01 07:09:41;;;;;;;5.63;2.17;;;;;;;;;;5031127;28;20457;-65
2023/01/01 07:12:06;;;;;;;5.22;1.88;;;;;;;;;;5031309;28;20025;-64
2023/01/01 07:14:31;;;;;;;8.47;2.17;;;;;;;;;;5031056;28;20061;-65
2023/01/01 07:16:57;;;;;;;5.10;1.90;;;;;;;;;;5031025;28;20029;-65
2023/01/01 07:19:22;;;;;;;5.57;1.83;;;;;;;;;;5031501;28;20104;-65
2023/01/01 07:21:51;;;;;;;7.68;2.55;;;;;;;;;;5031233;28;20518;-64
2023/01/01 07:24:17;;;;;;;6.28;2.40;;;;;;;;;;5030696;28;20461;-65
2023/01/01 07:26:43;;;;;;;7.18;2.30;;;;;;;;;;5031092;28;20120;-64
2023/01/01 07:29:08;;;;;;;6.22;2.40;;;;;;;;;;5031438;28;20028;-65
2023/01/01 07:31:34;;;;;;;6.00;2.13;;;;;;;;;;5031321;28;20080;-65
2023/01/01 07:33:59;;;;;;;5.45;2.05;;;;;;;;;;5030745;28;20370;-64
2023/01/01 07:36:24;;;;;;;5.70;2.28;;;;;;;;;;5031081;28;20018;-65
2023/01/01 07:38:49;;;;;;;5.18;2.40;;;;;;;;;;5030829;28;20030;-65
2023/01/01 07:41:14;;;;;;;5.70;2.25;;;;;;;;;;5031369;28;20419;-65
2023/01/01 07:43:39;;;;;;;6.68;2.28;;;;;;;;;;5030611;28;20017;-64
2023/01/01 07:46:05;;;;;;;6.20;2.50;;;;;;;;;;5028964;28;20052;-65
2023/01/01 07:48:30;;;;;;;7.03;2.60;;;;;;;;;;5030461;28;20025;-64
2023/01/01 07:50:55;;;;;;;9.73;2.70;;;;;;;;;;5031137;28;20035;-64
2023/01/01 07:53:20;;;;;;;6.37;2.50;;;;;;;;;;5030498;28;20427;-65
2023/01/01 07:55:45;;;;;;;6.50;2.73;;;;;;;;;;5030657;28;20017;-64
2023/01/01 07:58:11;;;;;;;7.43;2.70;;;;;;;;;;5030682;28;20472;-64
2023/01/01 08:00:36;;;;;;;7.05;2.88;;;;;;;;;;5030750;28;20411;-65
2023/01/01 08:03:02;;;;;;;5.43;2.25;;;;;;;;;;5030576;28;20109;-65
2023/01/01 08:05:27;;;;;;;5.47;2.30;;;;;;;;;;5030790;28;20151;-64
2023/01/01 08:07:52;;;;;;;8.00;2.58;;;;;;;;;;5030396;28;20108;-63
2023/01/01 08:10:19;;;;;;;7.93;2.43;;;;;;;;;;5030448;28;20017;-63
2023/01/01 08:12:44;;;;;;;6.63;2.35;;;;;;;;;;5030428;28;20048;-64
2023/01/01 08:15:11;;;;;;;6.75;2.55;;;;;;;;;;5030910;28;20384;-64
2023/01/01 08:17:36;;;;;;;6.53;2.47;;;;;;;;;;5030370;28;20131;-63
2023/01/01 08:20:01;;;;;;;6.97;2.50;;;;;;;;;;5030647;28;20100;-64
2023/01/01 08:22:26;;;;;;;6.45;2.58;;;;;;;;;;5030495;28;20392;-64
2023/01/01 08:24:51;;;;;;;6.78;2.30;;;;;;;;;;5029884;28;20026;-64
2023/01/01 08:27:17;;;;;;;6.97;2.30;;;;;;;;;;5030552;28;20037;-65
2023/01/01 08:29:42;;;;;;;5.80;2.08;;;;;;;;;;5030260;28;20381;-64
2023/01/01 08:32:07;;;;;;;5.63;2.33;;;;;;;;;;5030575;28;20053;-64
2023/01/01 08:34:33;;;;;;;5.73;2.40;;;;;;;;;;5030313;28;20025;-65
2023/01/01 08:36:58;;;;;;;5.88;2.15;;;;;;;;;;5030089;28;20110;-63
2023/01/01 08:39:24;;;;;;;7.18;2.60;;;;;;;;;;5030153;28;20040;-65
2023/01/01 08:41:49;;;;;;;6.73;2.30;;;;;;;;;;5030348;28;20103;-65
2023/01/01 08:44:14;;;;;;;5.70;2.05;;;;;;;;;;5030362;28;20014;-64
2023/01/01 08:46:39;;;;;;;7.13;2.00;;;;;;;;;;5030158;28;20103;-64
2023/01/01 08:49:04;;;;;;;5.63;2.30;;;;;;;;;;5030413;28;20029;-64
2023/01/01 08:51:29;;;;;;;5.67;2.33;;;;;;;;;;5030286;28;20030;-65
2023/01/01 08:53:54;;;;;;;6.35;2.22;;;;;;;;;;5029544;28;20116;-64
2023/01/01 08:56:19;;;;;;;6.30;2.10;;;;;;;;;;5030085;28;20021;-64
2023/01/01 08:58:45;;;;;;;6.65;2.35;;;;;;;;;;5031547;28;20048;-65
2023/01/01 09:01:10;;;;;;;6.70;2.05;;;;;;;;;;5034041;28;20013;-65
2023/01/01 09:03:35;;;;;;;4.72;1.83;;;;;;;;;;5033719;28;20025;-65
2023/01/01 09:06:01;;;;;;;8.73;2.20;;;;;;;;;;5033636;28;20009;-63
2023/01/01 09:08:26;;;;;;;7.05;2.00;;;;;;;;;;5033444;28;20484;-64
2023/01/01 09:10:52;;;;;;;5.75;2.20;;;;;;;;;;5033593;28;20025;-65
2023/01/01 09:13:18;;;;;;;6.90;2.55;;;;;;;;;;5033525;28;20408;-64
2023/01/01 09:15:43;;;;;;;7.10;2.58;;;;;;;;;;5033370;28;20022;-65
2023/01/01 09:18:09;;;;;;;6.93;2.10;;;;;;;;;;5033380;28;20024;-64
2023/01/01 09:20:34;;;;;;;6.65;2.30;;;;;;;;;;5033419;28;20028;-64
2023/01/01 09:23:00;;;;;;;8.43;2.72;;;;;;;;;;5033351;28;20097;-64
2023/01/01 09:25:25;;;;;;;6.73;2.50;;;;;;;;;;5032790;28;20423;-65
2023/01/01 09:27:55;;;;;;;6.03;2.33;;;;;;;;;;5033488;28;20038;-64
2023/01/01 09:30:20;;;;;;;6.63;2.45;;;;;;;;;;5033195;28;20419;-64
2023/01/01 09:32:46;;;;;;;7.70;2.55;;;;;;;;;;5033277;28;20031;-64
2023/01/01 09:35:11;;;;;;;6.60;2.17;;;;;;;;;;5033081;28;20026;-65
2023/01/01 09:37:36;;;;;;;6.35;2.13;;;;;;;;;;5032714;28;20484;-65
2023/01/01 09:40:02;;;;;;;5.47;2.10;;;;;;;;;;5033160;28;20104;-65
2023/01/01 09:42:30;;;;;;;8.70;2.30;;;;;;;;;;5033041;28;20044;-65
2023/01/01 09:45:01;;;;;;;4.75;1.95;;;;;;;;;;5033075;28;20017;-66
2023/01/01 09:47:26;;;;;;;6.97;1.95;;;;;;;;;;5033129;28;20068;-65
2023/01/01 09:49:53;;;;;;;6.40;1.92;;;;;;;;;;5033032;28;20021;-65
2023/01/01 09:52:18;;;;;;;6.20;1.75;;;;;;;;;;5032637;28;20032;-64
2023/01/01 09:54:47;;;;;;;6.25;1.90;;;;;;;;;;5032401;28;20025;-63
2023/01/01 09:57:13;;;;;;;6.38;2.13;;;;;;;;;;5030912;28;20025;-64
2023/01/01 09:59:39;;;;;;;5.30;2.00;;;;;;;;;;5032560;28;20024;-64
2023/01/01 10:02:23;;;;;;;5.40;1.92;;;;;;;;;;5032780;28;20037;-63
2023/01/01 10:05:05;;;;;;;8.10;1.70;;;;;;;;;;5032705;28;20053;-63
2023/01/01 10:07:36;;;;;;;5.32;2.10;;;;;;;;;;5032662;28;20057;-58
2023/01/01 10:10:10;;;;;;;5.68;1.73;;;;;;;;;;5031747;28;20563;-58
2023/01/01 10:12:39;;;;;;;5.72;1.70;;;;;;;;;;5032353;28;20054;-66
2023/01/01 10:15:11;;;;;;;5.40;1.52;;;;;;;;;;5031483;28;20409;-67
2023/01/01 10:17:40;;;;;;;8.07;1.65;;;;;;;;;;5032535;28;20032;-67
2023/01/01 10:20:20;;;;;;;5.95;1.70;;;;;;;;;;5032473;28;20422;-67
2023/01/01 10:22:48;;;;;;;7.90;2.00;;;;;;;;;;5032203;28;20017;-66
2023/01/01 10:25:16;;;;;;;6.07;2.05;;;;;;;;;;5032231;28;20028;-67
2023/01/01 10:27:47;;;;;;;6.43;1.65;;;;;;;;;;5031842;28;20053;-66
2023/01/01 10:30:14;;;;;;;10.10;1.80;;;;;;;;;;5032394;28;20025;-65
2023/01/01 10:32:42;;;;;;;5.63;1.90;;;;;;;;;;5031832;28;20357;-66
2023/01/01 10:35:14;;;;;;;6.90;1.80;;;;;;;;;;5031938;28;20473;-66
2023/01/01 10:37:40;;;;;;;6.28;1.88;;;;;;;;;;5031625;28;20476;-65
2023/01/01 10:40:13;;;;;;;7.70;2.08;;;;;;;;;;5031956;28;20136;-67
2023/01/01 10:42:38;;;;;;;6.40;1.52;;;;;;;;;;5032082;28;20013;-66
2023/01/01 10:45:04;;;;;;;7.00;1.97;;;;;;;;;;5031914;28;20017;-66
2023/01/01 10:47:29;;;;;;;6.50;1.67;;;;;;;;;;5031919;28;20057;-66
2023/01/01 10:49:55;;;;;;;6.67;1.47;;;;;;;;;;5031793;28;20108;-66
2023/01/01 10:52:23;;;;;;;8.50;1.70;;;;;;;;;;5031661;28;20025;-64
2023/01/01 10:54:49;;;;;;;7.95;1.60;;;;;;;;;;5031154;28;20545;-66
2023/01/01 10:57:15;;;;;;;6.67;1.83;;;;;;;;;;5031556;28;20029;-65
2023/01/01 10:59:41;;;;;;;7.93;2.00;;;;;;;;;;5031117;28;20447;-66
2023/01/01 11:02:14;;;;;;;5.90;1.63;;;;;;;;;;5031632;28;20025;-67
2023/01/01 11:04:39;;;;;;;6.47;1.70;;;;;;;;;;5031486;28;20030;-67
2023/01/01 11:07:05;;;;;;;5.25;2.03;;;;;;;;;;5031244;28;20431;-66
2023/01/01 11:09:30;;;;;;;7.00;1.45;;;;;;;;;;5031241;28;20030;-66
2023/01/01 11:11:59;;;;;;;6.73;1.83;;;;;;;;;;5031583;28;20029;-66
2023/01/01 11:14:36;;;;;;;7.05;1.60;;;;;;;;;;5031080;28;20049;-66
2023/01/01 11:17:01;;;;;;;8.70;2.00;;;;;;;;;;5031257;28;20079;-66
2023/01/01 11:19:28;;;;;;;5.60;1.80;;;;;;;;;;5031664;28;20014;-67
2023/01/01 11:21:53;;;;;;;7.88;1.50;;;;;;;;;;5030484;28;20495;-66
2023/01/01 11:24:18;;;;;;;10.27;1.73;;;;;;;;;;5031180;28;20017;-66
2023/01/01 11:26:43;;;;;;;9.23;1.70;;;;;;;;;;5030969;28;20057;-66
2023/01/01 11:29:15;;;;;;;6.13;1.97;;;;;;;;;;5031191;28;20028;-67
2023/01/01 11:31:41;;;;;;;7.82;1.77;;;;;;;;;;5030987;28;20559;-67
2023/01/01 11:34:21;;;;;;;12.43;2.20;;;;;;;;;;5030923;28;20461;-66
2023/01/01 11:36:46;;;;;;;6.10;1.83;;;;;;;;;;5030630;28;20028;-68
2023/01/01 11:39:11;;;;;;;7.82;2.10;;;;;;;;;;5031119;28;20017;-67
2023/01/01 11:41:41;;;;;;;7.28;1.73;;;;;;;;;;5031065;28;20021;-65
2023/01/01 11:44:07;;;;;;;10.95;1.73;;;;;;;;;;5031231;28;20021;-67
2023/01/01 11:46:32;;;;;;;7.60;1.80;;;;;;;;;;5030668;28;20469;-67
2023/01/01 11:48:57;;;;;;;9.35;1.90;;;;;;;;;;5030598;28;20026;-67
2023/01/01 11:51:32;;;;;;;8.37;1.90;;;;;;;;;;5030920;28;20469;-67
2023/01/01 11:54:19;;;;;;;7.45;1.38;;;;;;;;;;5030736;28;20434;-67
2023/01/01 11:56:45;;;;;;;6.05;1.75;;;;;;;;;;5030503;28;20116;-66
2023/01/01 11:59:13;;;;;;;7.00;1.50;;;;;;;;;;5030556;28;20534;-66
2023/01/01 12:01:49;;;;;;;9.05;1.88;;;;;;;;;;5030365;28;20029;-67
2023/01/01 12:04:20;;;;;;;9.02;1.80;;;;;;;;;;5030905;28;20033;-66
2023/01/01 12:06:49;;;;;;;8.82;1.85;;;;;;;;;;5030037;28;20465;-66
2023/01/01 12:09:23;;;;;;;8.88;1.80;;;;;;;;;;5030873;28;20384;-66
2023/01/01 12:11:54;;;;;;;10.07;1.63;;;;;;;;;;5030318;28;20045;-66
2023/01/01 12:14:23;;;;;;;7.20;2.10;;;;;;;;;;5030257;28;20480;-66
2023/01/01 12:16:56;;;;;;;7.13;1.92;;;;;;;;;;5020171;28;20096;-66
2023/01/01 12:19:23;;;;;;;8.23;1.63;;;;;;;;;;5027095;28;20606;-66
2023/01/01 12:21:50;;;;;;;7.18;1.70;;;;;;;;;;5017996;28;20642;-66
2023/01/01 12:24:17;;;;;;;7.57;1.73;;;;;;;;;;5012166;28;20128;-65
2023/01/01 12:27:01;;;;;;;7.55;1.90;;;;;;;;;;5016249;28;20056;-66
2023/01/01 12:29:53;;;;;;;8.10;1.80;;;;;;;;;;5029515;28;20029;-67
2023/01/01 12:32:18;;;;;;;7.18;1.90;;;;;;;;;;5027484;28;20121;-66
2023/01/01 12:34:56;;;;;;;6.80;1.80;;;;;;;;;;5018807;28;20104;-67
2023/01/01 12:37:30;;;;;;;10.18;2.10;;;;;;;;;;5022515;28;20080;-66
2023/01/01 12:40:14;;;;;;;9.90;2.15;;;;;;;;;;5021919;28;20018;-66
2023/01/01 12:42:39;;;;;;;9.80;2.22;;;;;;;;;;5028847;28;20022;-67
2023/01/01 12:45:04;;;;;;;6.73;1.77;;;;;;;;;;5023006;28;20028;-66
2023/01/01 12:47:37;;;;;;;7.33;2.10;;;;;;;;;;5030829;28;20044;-67
2023/01/01 12:50:09;;;;;;;5.85;1.80;;;;;;;;;;5024904;28;20037;-66
2023/01/01 12:52:34;;;;;;;9.25;2.40;;;;;;;;;;5025974;28;20021;-67
2023/01/01 12:55:10;;;;;;;7.68;2.03;;;;;;;;;;5020292;28;20532;-65
2023/01/01 12:57:42;;;;;;;8.95;1.85;;;;;;;;;;5022885;28;20033;-67
2023/01/01 13:00:18;;;;;;;7.32;1.80;;;;;;;;;;5016576;28;20111;-67
2023/01/01 13:02:49;;;;;;;7.22;2.00;;;;;;;;;;5018871;28;20021;-67
2023/01/01 13:05:17;;;;;;;6.43;1.70;;;;;;;;;;5024130;28;20128;-66
2023/01/01 13:07:45;;;;;;;8.85;1.90;;;;;;;;;;5025231;28;20041;-65
2023/01/01 13:10:33;;;;;;;8.80;1.75;;;;;;;;;;5022179;28;20087;-66
2023/01/01 13:12:59;;;;;;;7.30;1.90;;;;;;;;;;5014860;28;20108;-66
2023/01/01 13:15:33;;;;;;;7.68;2.00;;;;;;;;;;5014824;28;20018;-65
2023/01/01 13:17:59;;;;;;;7.15;2.10;;;;;;;;;;5019205;28;20021;-65
2023/01/01 13:20:25;;;;;;;10.50;2.10;;;;;;;;;;5015687;28;20033;-66
2023/01/01 13:22:50;;;;;;;;;;;;;;;;;;5017520;28;20556;-65
2023/01/01 13:25:15;;;;;;;10.50;2.00;;;;;;;;;;5011182;28;20012;-66
2023/01/01 13:27:56;;;;;;;5.70;1.75;;;;;;;;;;5017542;28;20030;-63
2023/01/01 13:30:36;;;;;;;8.70;1.70;;;;;;;;;;5014718;28;20489;-66
2023/01/01 13:33:24;;;;;;;8.50;1.80;;;;;;;;;;5025279;28;20033;-64
2023/01/01 13:36:21;;;;;;;8.90;1.70;;;;;;;;;;5028497;28;20037;-64
2023/01/01 13:38:50;;;;;;;7.95;2.10;;;;;;;;;;5016947;28;20037;-65
2023/01/01 13:41:27;;;;;;;12.38;2.17;;;;;;;;;;5022324;28;20029;-63
2023/01/01 13:43:52;;;;;;;9.90;2.30;;;;;;;;;;5013782;28;20124;-63
2023/01/01 13:46:22;;;;;;;8.25;2.20;;;;;;;;;;5015695;28;20148;-63
2023/01/01 13:48:52;;;;;;;8.38;2.20;;;;;;;;;;5019169;28;20099;-64
2023/01/01 13:51:29;;;;;;;7.03;2.33;;;;;;;;;;5026169;28;20056;-64
2023/01/01 13:54:01;;;;;;;7.15;1.95;;;;;;;;;;5024043;28;20032;-64
2023/01/01 13:56:35;;;;;;;7.70;2.00;;;;;;;;;;5013901;28;20053;-65
2023/01/01 13:59:07;;;;;;;7.90;2.00;;;;;;;;;;5027710;28;20506;-64
2023/01/01 14:01:41;;;;;;;6.78;1.98;;;;;;;;;;5020176;28;20032;-64
2023/01/01 14:04:11;;;;;;;7.20;1.83;;;;;;;;;;5027166;28;20022;-64
2023/01/01 14:06:39;;;;;;;7.25;1.90;;;;;;;;;;5015675;28;20020;-64
2023/01/01 14:09:05;;;;;;;10.52;1.92;;;;;;;;;;5025659;28;20079;-64
2023/01/01 14:11:30;;;;;;;8.40;1.58;;;;;;;;;;5021429;28;20489;-64
2023/01/01 14:13:55;;;;;;;8.57;1.97;;;;;;;;;;5026153;28;20517;-64
2023/01/01 14:16:21;;;;;;;7.30;1.90;;;;;;;;;;5018743;28;20099;-64
2023/01/01 14:18:47;;;;;;;7.37;1.93;;;;;;;;;;5006431;28;20028;-64
2023/01/01 14:21:20;;;;;;;10.85;2.03;;;;;;;;;;5015225;28;20087;-64
2023/01/01 14:23:48;;;;;;;7.15;1.98;;;;;;;;;;5028197;28;20157;-64
2023/01/01 14:26:15;;;;;;;8.02;2.13;;;;;;;;;;5022749;28;20057;-64
2023/01/01 14:28:41;;;;;;;9.65;2.30;;;;;;;;;;5019399;28;20485;-64
2023/01/01 14:31:15;;;;;;;9.95;2.40;;;;;;;;;;5009139;28;20030;-64
2023/01/01 14:33:40;;;;;;;6.68;2.20;;;;;;;;;;5027026;28;20025;-65
2023/01/01 14:36:14;;;;;;;7.73;2.30;;;;;;;;;;5027174;28;20021;-63
2023/01/01 14:38:43;;;;;;;8.10;2.10;;;;;;;;;;5032019;28;20724;-64
2023/01/01 14:41:17;;;;;;;8.00;2.20;;;;;;;;;;5021816;28;20026;-63
2023/01/01 14:43:44;;;;;;;8.35;2.08;;;;;;;;;;5013038;28;20052;-64
2023/01/01 14:46:13;;;;;;;8.98;2.00;;;;;;;;;;5014138;28;20033;-64